sensor_id;sensor_type;location;lat;lon;timestamp;P1;durP1;ratioP1;P2;durP2;ratioP2
23888;SDS011;12125;40.102;18.326;2022-12-29T00:01:36;77.88;;;49.45;;
23888;SDS011;12125;40.102;18.326;2022-12-29T00:04:03;60.50;;;42.95;;
23888;SDS011;12125;40.102;18.326;2022-12-29T00:06:30;85.78;;;50.17;;
23888;SDS011;12125;40.102;18.326;2022-12-29T00:08:57;66.43;;;40.92;;
23888;SDS011;12125;40.102;18.326;2022-12-29T00:11:24;56.70;;;44.65;;
23888;SDS011;12125;40.102;18.326;2022-12-29T00:13:51;73.75;;;48.05;;
23888;SDS011;12125;40.102;18.326;2022-12-29T00:16:37;92.45;;;50.70;;
23888;SDS011;12125;40.102;18.326;2022-12-29T00:19:04;59.88;;;45.72;;
23888;SDS011;12125;40.102;18.326;2022-12-29T00:21:31;94.88;;;49.30;;
23888;SDS011;12125;40.102;18.326;2022-12-29T00:24:17;84.43;;;47.38;;
23888;SDS011;12125;40.102;18.326;2022-12-29T00:27:09;80.45;;;48.25;;
23888;SDS011;12125;40.102;18.326;2022-12-29T00:29:56;113.30;;;54.17;;
23888;SDS011;12125;40.102;18.326;2022-12-29T00:32:43;63.97;;;46.05;;
23888;SDS011;12125;40.102;18.326;2022-12-29T00:35:29;93.55;;;49.65;;
23888;SDS011;12125;40.102;18.326;2022-12-29T00:37:57;75.63;;;50.63;;
23888;SDS011;12125;40.102;18.326;2022-12-29T00:40:44;61.58;;;48.40;;
23888;SDS011;12125;40.102;18.326;2022-12-29T00:43:33;60.55;;;44.67;;
23888;SDS011;12125;40.102;18.326;2022-12-29T00:46:18;57.25;;;44.42;;
23888;SDS011;12125;40.102;18.326;2022-12-29T00:48:45;53.72;;;41.15;;
23888;SDS011;12125;40.102;18.326;2022-12-29T00:51:30;48.17;;;39.10;;
23888;SDS011;12125;40.102;18.326;2022-12-29T00:53:57;50.75;;;38.55;;
23888;SDS011;12125;40.102;18.326;2022-12-29T00:56:24;49.22;;;39.03;;
23888;SDS011;12125;40.102;18.326;2022-12-29T00:58:51;55.83;;;42.70;;
23888;SDS011;12125;40.102;18.326;2022-12-29T01:01:18;52.97;;;40.40;;
23888;SDS011;12125;40.102;18.326;2022-12-29T01:03:45;52.28;;;42.47;;
23888;SDS011;12125;40.102;18.326;2022-12-29T01:06:12;56.20;;;41.45;;
23888;SDS011;12125;40.102;18.326;2022-12-29T01:08:38;51.35;;;39.13;;
23888;SDS011;12125;40.102;18.326;2022-12-29T01:11:06;50.92;;;39.90;;
23888;SDS011;12125;40.102;18.326;2022-12-29T01:13:33;48.40;;;36.55;;
23888;SDS011;12125;40.102;18.326;2022-12-29T01:16:00;55.95;;;41.83;;
23888;SDS011;12125;40.102;18.326;2022-12-29T01:18:28;54.20;;;42.40;;
23888;SDS011;12125;40.102;18.326;2022-12-29T01:20:58;51.50;;;38.65;;
23888;SDS011;12125;40.102;18.326;2022-12-29T01:23:25;61.00;;;42.17;;
23888;SDS011;12125;40.102;18.326;2022-12-29T01:25:52;52.95;;;42.00;;
23888;SDS011;12125;40.102;18.326;2022-12-29T01:28:18;160.40;;;69.97;;
23888;SDS011;12125;40.102;18.326;2022-12-29T01:30:45;55.22;;;41.70;;
23888;SDS011;12125;40.102;18.326;2022-12-29T01:33:12;94.50;;;58.08;;
23888;SDS011;12125;40.102;18.326;2022-12-29T01:35:40;282.65;;;98.90;;
23888;SDS011;12125;40.102;18.326;2022-12-29T01:38:09;194.38;;;75.85;;
23888;SDS011;12125;40.102;18.326;2022-12-29T01:40:42;132.15;;;73.40;;
23888;SDS011;12125;40.102;18.326;2022-12-29T01:45:36;82.50;;;54.67;;
23888;SDS011;12125;40.102;18.326;2022-12-29T01:48:03;102.53;;;59.60;;
23888;SDS011;12125;40.102;18.326;2022-12-29T01:50:32;88.32;;;57.85;;
23888;SDS011;12125;40.102;18.326;2022-12-29T01:53:00;105.88;;;64.35;;
23888;SDS011;12125;40.102;18.326;2022-12-29T01:55:29;82.80;;;54.88;;
23888;SDS011;12125;40.102;18.326;2022-12-29T01:57:57;106.53;;;68.72;;
23888;SDS011;12125;40.102;18.326;2022-12-29T02:00:26;90.90;;;60.90;;
23888;SDS011;12125;40.102;18.326;2022-12-29T02:02:53;90.35;;;59.05;;
23888;SDS011;12125;40.102;18.326;2022-12-29T02:05:24;81.93;;;57.17;;
23888;SDS011;12125;40.102;18.326;2022-12-29T02:07:52;91.72;;;57.90;;
23888;SDS011;12125;40.102;18.326;2022-12-29T02:10:20;83.78;;;54.72;;
23888;SDS011;12125;40.102;18.326;2022-12-29T02:12:47;88.18;;;58.13;;
23888;SDS011;12125;40.102;18.326;2022-12-29T02:15:14;72.15;;;48.88;;
23888;SDS011;12125;40.102;18.326;2022-12-29T02:17:59;70.45;;;50.92;;
23888;SDS011;12125;40.102;18.326;2022-12-29T02:20:35;77.55;;;47.95;;
23888;SDS011;12125;40.102;18.326;2022-12-29T02:34:10;73.43;;;49.65;;
23888;SDS011;12125;40.102;18.326;2022-12-29T02:44:19;73.13;;;48.63;;
23888;SDS011;12125;40.102;18.326;2022-12-29T02:46:52;73.22;;;49.95;;
23888;SDS011;12125;40.102;18.326;2022-12-29T02:49:25;69.78;;;47.72;;
23888;SDS011;12125;40.102;18.326;2022-12-29T02:51:58;75.53;;;52.05;;
23888;SDS011;12125;40.102;18.326;2022-12-29T02:54:26;66.57;;;48.00;;
23888;SDS011;12125;40.102;18.326;2022-12-29T02:57:27;72.50;;;48.92;;
23888;SDS011;12125;40.102;18.326;2022-12-29T03:00:05;69.60;;;49.33;;
23888;SDS011;12125;40.102;18.326;2022-12-29T03:02:43;68.60;;;47.80;;
23888;SDS011;12125;40.102;18.326;2022-12-29T03:05:14;59.80;;;44.80;;
23888;SDS011;12125;40.102;18.326;2022-12-29T03:07:46;68.03;;;45.67;;
23888;SDS011;12125;40.102;18.326;2022-12-29T03:13:04;70.22;;;48.08;;
23888;SDS011;12125;40.102;18.326;2022-12-29T03:15:55;72.30;;;49.55;;
23888;SDS011;12125;40.102;18.326;2022-12-29T03:21:14;79.35;;;53.63;;
23888;SDS011;12125;40.102;18.326;2022-12-29T03:23:41;74.95;;;49.88;;
23888;SDS011;12125;40.102;18.326;2022-12-29T03:26:10;78.10;;;48.92;;
23888;SDS011;12125;40.102;18.326;2022-12-29T03:28:40;71.07;;;47.10;;
23888;SDS011;12125;40.102;18.326;2022-12-29T03:31:14;99.20;;;67.35;;
23888;SDS011;12125;40.102;18.326;2022-12-29T03:33:41;105.70;;;69.95;;
23888;SDS011;12125;40.102;18.326;2022-12-29T03:36:11;87.88;;;59.33;;
23888;SDS011;12125;40.102;18.326;2022-12-29T03:38:42;82.07;;;53.63;;
23888;SDS011;12125;40.102;18.326;2022-12-29T03:41:11;201.57;;;105.72;;
23888;SDS011;12125;40.102;18.326;2022-12-29T03:43:40;264.38;;;116.93;;
23888;SDS011;12125;40.102;18.326;2022-12-29T03:46:08;279.30;;;129.73;;
23888;SDS011;12125;40.102;18.326;2022-12-29T03:48:37;262.65;;;101.13;;
23888;SDS011;12125;40.102;18.326;2022-12-29T03:51:03;279.02;;;124.15;;
23888;SDS011;12125;40.102;18.326;2022-12-29T03:53:30;160.98;;;93.40;;
23888;SDS011;12125;40.102;18.326;2022-12-29T03:55:59;301.20;;;132.88;;
23888;SDS011;12125;40.102;18.326;2022-12-29T03:58:26;200.32;;;107.53;;
23888;SDS011;12125;40.102;18.326;2022-12-29T04:01:10;288.73;;;118.90;;
23888;SDS011;12125;40.102;18.326;2022-12-29T04:03:38;249.30;;;98.07;;
23888;SDS011;12125;40.102;18.326;2022-12-29T04:06:04;163.88;;;90.35;;
23888;SDS011;12125;40.102;18.326;2022-12-29T04:08:38;248.32;;;114.00;;
23888;SDS011;12125;40.102;18.326;2022-12-29T04:11:05;164.65;;;94.80;;
23888;SDS011;12125;40.102;18.326;2022-12-29T04:13:32;150.32;;;82.13;;
23888;SDS011;12125;40.102;18.326;2022-12-29T04:15:59;219.27;;;91.50;;
23888;SDS011;12125;40.102;18.326;2022-12-29T04:18:26;240.43;;;98.65;;
23888;SDS011;12125;40.102;18.326;2022-12-29T04:20:54;172.02;;;93.32;;
23888;SDS011;12125;40.102;18.326;2022-12-29T04:23:30;150.05;;;88.50;;
23888;SDS011;12125;40.102;18.326;2022-12-29T04:25:57;182.98;;;86.10;;
23888;SDS011;12125;40.102;18.326;2022-12-29T04:28:27;150.23;;;80.03;;
23888;SDS011;12125;40.102;18.326;2022-12-29T04:30:53;147.45;;;79.05;;
23888;SDS011;12125;40.102;18.326;2022-12-29T04:33:27;206.20;;;90.78;;
23888;SDS011;12125;40.102;18.326;2022-12-29T04:35:54;150.02;;;78.32;;
23888;SDS011;12125;40.102;18.326;2022-12-29T04:38:22;131.32;;;78.00;;
23888;SDS011;12125;40.102;18.326;2022-12-29T04:40:49;127.93;;;66.22;;
23888;SDS011;12125;40.102;18.326;2022-12-29T04:43:18;119.93;;;71.18;;
23888;SDS011;12125;40.102;18.326;2022-12-29T04:46:05;136.98;;;69.32;;
23888;SDS011;12125;40.102;18.326;2022-12-29T04:48:50;137.52;;;75.65;;
23888;SDS011;12125;40.102;18.326;2022-12-29T04:51:38;155.18;;;69.55;;
23888;SDS011;12125;40.102;18.326;2022-12-29T04:54:08;117.28;;;66.75;;
23888;SDS011;12125;40.102;18.326;2022-12-29T04:56:35;97.00;;;57.70;;
23888;SDS011;12125;40.102;18.326;2022-12-29T04:59:02;96.45;;;59.85;;
23888;SDS011;12125;40.102;18.326;2022-12-29T05:01:29;91.72;;;57.50;;
23888;SDS011;12125;40.102;18.326;2022-12-29T05:03:57;97.97;;;59.10;;
23888;SDS011;12125;40.102;18.326;2022-12-29T05:06:24;98.28;;;56.63;;
23888;SDS011;12125;40.102;18.326;2022-12-29T05:08:51;93.78;;;57.15;;
23888;SDS011;12125;40.102;18.326;2022-12-29T05:11:17;75.13;;;50.10;;
23888;SDS011;12125;40.102;18.326;2022-12-29T05:13:46;70.80;;;44.95;;
23888;SDS011;12125;40.102;18.326;2022-12-29T05:16:15;70.57;;;45.30;;
23888;SDS011;12125;40.102;18.326;2022-12-29T05:18:42;79.43;;;49.55;;
23888;SDS011;12125;40.102;18.326;2022-12-29T05:21:09;59.40;;;41.95;;
23888;SDS011;12125;40.102;18.326;2022-12-29T05:23:37;62.55;;;42.55;;
23888;SDS011;12125;40.102;18.326;2022-12-29T05:26:05;59.17;;;41.38;;
23888;SDS011;12125;40.102;18.326;2022-12-29T05:28:44;82.30;;;47.72;;
23888;SDS011;12125;40.102;18.326;2022-12-29T05:31:14;82.80;;;45.58;;
23888;SDS011;12125;40.102;18.326;2022-12-29T05:33:41;87.38;;;50.97;;
23888;SDS011;12125;40.102;18.326;2022-12-29T05:36:08;75.90;;;46.00;;
23888;SDS011;12125;40.102;18.326;2022-12-29T05:38:40;61.88;;;42.78;;
23888;SDS011;12125;40.102;18.326;2022-12-29T05:41:08;72.57;;;45.17;;
23888;SDS011;12125;40.102;18.326;2022-12-29T05:44:00;65.53;;;40.88;;
23888;SDS011;12125;40.102;18.326;2022-12-29T05:46:50;68.95;;;40.03;;
23888;SDS011;12125;40.102;18.326;2022-12-29T05:49:32;141.45;;;46.85;;
23888;SDS011;12125;40.102;18.326;2022-12-29T05:52:25;136.55;;;46.83;;
23888;SDS011;12125;40.102;18.326;2022-12-29T05:54:52;243.70;;;52.33;;
23888;SDS011;12125;40.102;18.326;2022-12-29T05:57:21;74.22;;;37.05;;
23888;SDS011;12125;40.102;18.326;2022-12-29T05:59:57;77.13;;;36.47;;
23888;SDS011;12125;40.102;18.326;2022-12-29T06:02:23;101.25;;;53.42;;
23888;SDS011;12125;40.102;18.326;2022-12-29T06:04:50;174.85;;;73.68;;
23888;SDS011;12125;40.102;18.326;2022-12-29T06:07:17;91.72;;;53.08;;
23888;SDS011;12125;40.102;18.326;2022-12-29T06:09:46;122.65;;;59.90;;
23888;SDS011;12125;40.102;18.326;2022-12-29T06:12:12;108.13;;;56.28;;
23888;SDS011;12125;40.102;18.326;2022-12-29T06:14:42;177.27;;;61.33;;
23888;SDS011;12125;40.102;18.326;2022-12-29T06:17:09;162.98;;;61.38;;
23888;SDS011;12125;40.102;18.326;2022-12-29T06:19:36;135.10;;;54.17;;
23888;SDS011;12125;40.102;18.326;2022-12-29T06:22:03;77.75;;;50.28;;
23888;SDS011;12125;40.102;18.326;2022-12-29T06:24:33;74.40;;;49.30;;
23888;SDS011;12125;40.102;18.326;2022-12-29T06:26:59;69.72;;;42.10;;
23888;SDS011;12125;40.102;18.326;2022-12-29T06:29:26;63.45;;;42.33;;
23888;SDS011;12125;40.102;18.326;2022-12-29T06:31:54;81.97;;;53.53;;
23888;SDS011;12125;40.102;18.326;2022-12-29T06:34:24;106.45;;;52.97;;
23888;SDS011;12125;40.102;18.326;2022-12-29T06:36:50;65.65;;;43.55;;
23888;SDS011;12125;40.102;18.326;2022-12-29T06:39:18;67.97;;;43.88;;
23888;SDS011;12125;40.102;18.326;2022-12-29T06:41:59;61.25;;;40.30;;
23888;SDS011;12125;40.102;18.326;2022-12-29T06:44:49;61.42;;;40.95;;
23888;SDS011;12125;40.102;18.326;2022-12-29T06:47:16;54.22;;;39.63;;
23888;SDS011;12125;40.102;18.326;2022-12-29T06:49:44;63.38;;;42.78;;
23888;SDS011;12125;40.102;18.326;2022-12-29T06:52:11;63.90;;;42.45;;
23888;SDS011;12125;40.102;18.326;2022-12-29T06:54:37;59.78;;;41.60;;
23888;SDS011;12125;40.102;18.326;2022-12-29T06:57:04;52.60;;;37.35;;
23888;SDS011;12125;40.102;18.326;2022-12-29T06:59:31;77.53;;;41.92;;
23888;SDS011;12125;40.102;18.326;2022-12-29T07:01:57;69.40;;;43.10;;
23888;SDS011;12125;40.102;18.326;2022-12-29T07:04:24;54.85;;;35.33;;
23888;SDS011;12125;40.102;18.326;2022-12-29T07:06:51;59.95;;;37.80;;
23888;SDS011;12125;40.102;18.326;2022-12-29T07:09:17;64.22;;;38.03;;
23888;SDS011;12125;40.102;18.326;2022-12-29T07:11:44;60.75;;;37.90;;
23888;SDS011;12125;40.102;18.326;2022-12-29T07:14:11;51.65;;;33.10;;
23888;SDS011;12125;40.102;18.326;2022-12-29T07:16:38;62.60;;;36.30;;
23888;SDS011;12125;40.102;18.326;2022-12-29T07:19:04;58.22;;;38.03;;
23888;SDS011;12125;40.102;18.326;2022-12-29T07:21:31;63.80;;;36.75;;
23888;SDS011;12125;40.102;18.326;2022-12-29T07:23:58;72.72;;;41.75;;
23888;SDS011;12125;40.102;18.326;2022-12-29T07:26:24;68.65;;;39.17;;
23888;SDS011;12125;40.102;18.326;2022-12-29T07:28:51;71.38;;;37.63;;
23888;SDS011;12125;40.102;18.326;2022-12-29T07:31:19;82.97;;;46.75;;
23888;SDS011;12125;40.102;18.326;2022-12-29T07:33:46;77.63;;;39.88;;
23888;SDS011;12125;40.102;18.326;2022-12-29T07:36:14;65.85;;;36.47;;
23888;SDS011;12125;40.102;18.326;2022-12-29T07:38:41;89.45;;;41.00;;
23888;SDS011;12125;40.102;18.326;2022-12-29T07:41:08;57.28;;;32.92;;
23888;SDS011;12125;40.102;18.326;2022-12-29T07:43:34;57.30;;;33.88;;
23888;SDS011;12125;40.102;18.326;2022-12-29T07:46:21;73.60;;;38.80;;
23888;SDS011;12125;40.102;18.326;2022-12-29T07:48:48;62.25;;;37.00;;
23888;SDS011;12125;40.102;18.326;2022-12-29T07:51:14;57.50;;;33.65;;
23888;SDS011;12125;40.102;18.326;2022-12-29T07:53:41;64.72;;;36.63;;
23888;SDS011;12125;40.102;18.326;2022-12-29T07:56:08;45.25;;;31.00;;
23888;SDS011;12125;40.102;18.326;2022-12-29T07:58:34;51.53;;;31.05;;
23888;SDS011;12125;40.102;18.326;2022-12-29T08:01:01;44.58;;;29.67;;
23888;SDS011;12125;40.102;18.326;2022-12-29T08:03:28;42.80;;;29.52;;
23888;SDS011;12125;40.102;18.326;2022-12-29T08:05:56;45.05;;;29.23;;
23888;SDS011;12125;40.102;18.326;2022-12-29T08:08:23;51.65;;;36.95;;
23888;SDS011;12125;40.102;18.326;2022-12-29T08:10:49;43.25;;;30.10;;
23888;SDS011;12125;40.102;18.326;2022-12-29T08:13:16;36.42;;;26.67;;
23888;SDS011;12125;40.102;18.326;2022-12-29T08:15:42;43.67;;;31.02;;
23888;SDS011;12125;40.102;18.326;2022-12-29T08:18:10;36.20;;;27.58;;
23888;SDS011;12125;40.102;18.326;2022-12-29T08:20:36;44.30;;;30.60;;
23888;SDS011;12125;40.102;18.326;2022-12-29T08:23:03;42.42;;;27.83;;
23888;SDS011;12125;40.102;18.326;2022-12-29T08:25:30;32.17;;;24.45;;
23888;SDS011;12125;40.102;18.326;2022-12-29T08:27:57;43.20;;;26.23;;
23888;SDS011;12125;40.102;18.326;2022-12-29T08:30:24;32.42;;;25.05;;
23888;SDS011;12125;40.102;18.326;2022-12-29T08:32:51;33.63;;;26.38;;
23888;SDS011;12125;40.102;18.326;2022-12-29T08:35:19;27.35;;;23.52;;
23888;SDS011;12125;40.102;18.326;2022-12-29T08:37:46;25.20;;;22.10;;
23888;SDS011;12125;40.102;18.326;2022-12-29T08:40:12;25.85;;;22.90;;
23888;SDS011;12125;40.102;18.326;2022-12-29T08:42:39;25.00;;;20.70;;
23888;SDS011;12125;40.102;18.326;2022-12-29T08:45:06;28.40;;;21.45;;
23888;SDS011;12125;40.102;18.326;2022-12-29T08:47:34;27.23;;;21.27;;
23888;SDS011;12125;40.102;18.326;2022-12-29T08:50:01;22.58;;;18.65;;
23888;SDS011;12125;40.102;18.326;2022-12-29T08:52:27;20.70;;;16.38;;
23888;SDS011;12125;40.102;18.326;2022-12-29T08:54:54;15.93;;;14.30;;
23888;SDS011;12125;40.102;18.326;2022-12-29T08:57:20;18.08;;;15.73;;
23888;SDS011;12125;40.102;18.326;2022-12-29T09:00:04;14.32;;;12.82;;
23888;SDS011;12125;40.102;18.326;2022-12-29T09:02:30;15.07;;;13.45;;
23888;SDS011;12125;40.102;18.326;2022-12-29T09:04:57;14.32;;;12.93;;
23888;SDS011;12125;40.102;18.326;2022-12-29T09:07:24;15.30;;;13.70;;
23888;SDS011;12125;40.102;18.326;2022-12-29T09:09:50;17.17;;;15.20;;
23888;SDS011;12125;40.102;18.326;2022-12-29T09:12:17;14.35;;;12.85;;
23888;SDS011;12125;40.102;18.326;2022-12-29T09:14:45;14.82;;;12.25;;
23888;SDS011;12125;40.102;18.326;2022-12-29T09:17:12;13.60;;;12.20;;
23888;SDS011;12125;40.102;18.326;2022-12-29T09:19:57;11.05;;;10.05;;
23888;SDS011;12125;40.102;18.326;2022-12-29T09:22:24;15.60;;;13.95;;
23888;SDS011;12125;40.102;18.326;2022-12-29T09:24:51;15.63;;;14.02;;
23888;SDS011;12125;40.102;18.326;2022-12-29T09:27:17;13.57;;;12.18;;
23888;SDS011;12125;40.102;18.326;2022-12-29T09:29:44;16.77;;;15.07;;
23888;SDS011;12125;40.102;18.326;2022-12-29T09:32:11;12.07;;;10.73;;
23888;SDS011;12125;40.102;18.326;2022-12-29T09:34:37;10.68;;;9.60;;
23888;SDS011;12125;40.102;18.326;2022-12-29T09:37:19;11.77;;;10.57;;
23888;SDS011;12125;40.102;18.326;2022-12-29T09:39:47;12.27;;;11.02;;
23888;SDS011;12125;40.102;18.326;2022-12-29T09:42:25;13.63;;;11.27;;
23888;SDS011;12125;40.102;18.326;2022-12-29T09:47:33;10.38;;;9.35;;
23888;SDS011;12125;40.102;18.326;2022-12-29T09:50:01;11.05;;;9.90;;
23888;SDS011;12125;40.102;18.326;2022-12-29T09:52:32;6.57;;;6.03;;
23888;SDS011;12125;40.102;18.326;2022-12-29T09:55:13;7.00;;;5.82;;
23888;SDS011;12125;40.102;18.326;2022-12-29T10:00:11;7.68;;;6.97;;
23888;SDS011;12125;40.102;18.326;2022-12-29T10:02:41;8.77;;;6.65;;
23888;SDS011;12125;40.102;18.326;2022-12-29T10:05:44;9.63;;;8.63;;
23888;SDS011;12125;40.102;18.326;2022-12-29T10:10:35;10.88;;;9.82;;
23888;SDS011;12125;40.102;18.326;2022-12-29T10:13:18;8.95;;;7.93;;
23888;SDS011;12125;40.102;18.326;2022-12-29T10:23:52;14.85;;;10.68;;
23888;SDS011;12125;40.102;18.326;2022-12-29T10:26:21;17.45;;;12.38;;
23888;SDS011;12125;40.102;18.326;2022-12-29T10:29:13;16.10;;;10.73;;
23888;SDS011;12125;40.102;18.326;2022-12-29T10:31:38;12.68;;;11.15;;
23888;SDS011;12125;40.102;18.326;2022-12-29T10:34:10;12.43;;;10.40;;
23888;SDS011;12125;40.102;18.326;2022-12-29T10:36:41;16.40;;;11.65;;
23888;SDS011;12125;40.102;18.326;2022-12-29T10:44:31;16.10;;;11.10;;
23888;SDS011;12125;40.102;18.326;2022-12-29T10:47:06;11.20;;;10.00;;
23888;SDS011;12125;40.102;18.326;2022-12-29T10:49:40;10.88;;;9.77;;
23888;SDS011;12125;40.102;18.326;2022-12-29T10:52:08;11.40;;;10.30;;
23888;SDS011;12125;40.102;18.326;2022-12-29T10:57:09;13.63;;;9.63;;
23888;SDS011;12125;40.102;18.326;2022-12-29T10:59:37;10.88;;;8.95;;
23888;SDS011;12125;40.102;18.326;2022-12-29T11:05:10;15.27;;;11.63;;
23888;SDS011;12125;40.102;18.326;2022-12-29T11:07:27;12.00;;;10.52;;
23888;SDS011;12125;40.102;18.326;2022-12-29T11:09:56;13.93;;;10.32;;
23888;SDS011;12125;40.102;18.326;2022-12-29T11:12:54;13.68;;;11.13;;
23888;SDS011;12125;40.102;18.326;2022-12-29T11:15:21;14.63;;;11.70;;
23888;SDS011;12125;40.102;18.326;2022-12-29T11:17:51;16.23;;;11.18;;
23888;SDS011;12125;40.102;18.326;2022-12-29T11:20:27;13.60;;;10.70;;
23888;SDS011;12125;40.102;18.326;2022-12-29T11:22:54;12.82;;;10.90;;
23888;SDS011;12125;40.102;18.326;2022-12-29T11:25:26;11.93;;;10.65;;
23888;SDS011;12125;40.102;18.326;2022-12-29T11:30:29;13.63;;;12.23;;
23888;SDS011;12125;40.102;18.326;2022-12-29T11:32:56;14.18;;;12.63;;
23888;SDS011;12125;40.102;18.326;2022-12-29T11:35:42;20.38;;;13.02;;
23888;SDS011;12125;40.102;18.326;2022-12-29T11:38:46;13.80;;;12.40;;
23888;SDS011;12125;40.102;18.326;2022-12-29T11:41:02;12.80;;;11.45;;
23888;SDS011;12125;40.102;18.326;2022-12-29T11:43:34;13.02;;;11.65;;
23888;SDS011;12125;40.102;18.326;2022-12-29T11:46:02;13.85;;;12.35;;
23888;SDS011;12125;40.102;18.326;2022-12-29T11:48:31;11.32;;;9.77;;
23888;SDS011;12125;40.102;18.326;2022-12-29T11:51:01;11.15;;;10.00;;
23888;SDS011;12125;40.102;18.326;2022-12-29T11:53:32;12.50;;;11.23;;
23888;SDS011;12125;40.102;18.326;2022-12-29T11:56:04;12.40;;;10.90;;
23888;SDS011;12125;40.102;18.326;2022-12-29T11:58:36;15.48;;;11.50;;
23888;SDS011;12125;40.102;18.326;2022-12-29T12:01:07;11.48;;;10.40;;
23888;SDS011;12125;40.102;18.326;2022-12-29T12:04:03;11.00;;;10.00;;
23888;SDS011;12125;40.102;18.326;2022-12-29T12:06:32;19.50;;;10.45;;
23888;SDS011;12125;40.102;18.326;2022-12-29T12:09:02;18.00;;;10.40;;
23888;SDS011;12125;40.102;18.326;2022-12-29T12:11:34;23.02;;;10.90;;
23888;SDS011;12125;40.102;18.326;2022-12-29T12:16:54;13.45;;;10.77;;
23888;SDS011;12125;40.102;18.326;2022-12-29T12:19:41;11.43;;;9.88;;
23888;SDS011;12125;40.102;18.326;2022-12-29T12:24:51;10.25;;;9.25;;
23888;SDS011;12125;40.102;18.326;2022-12-29T12:27:29;12.25;;;10.05;;
23888;SDS011;12125;40.102;18.326;2022-12-29T12:29:58;20.77;;;11.38;;
23888;SDS011;12125;40.102;18.326;2022-12-29T12:32:28;14.27;;;11.55;;
23888;SDS011;12125;40.102;18.326;2022-12-29T12:34:56;17.00;;;12.38;;
23888;SDS011;12125;40.102;18.326;2022-12-29T12:48:11;11.23;;;9.80;;
23888;SDS011;12125;40.102;18.326;2022-12-29T12:53:12;10.73;;;9.63;;
23888;SDS011;12125;40.102;18.326;2022-12-29T12:58:31;9.25;;;8.25;;
23888;SDS011;12125;40.102;18.326;2022-12-29T13:03:48;8.65;;;7.85;;
23888;SDS011;12125;40.102;18.326;2022-12-29T13:12:03;11.90;;;9.15;;
23888;SDS011;12125;40.102;18.326;2022-12-29T13:17:18;9.15;;;8.35;;
23888;SDS011;12125;40.102;18.326;2022-12-29T13:25:04;10.45;;;9.40;;
23888;SDS011;12125;40.102;18.326;2022-12-29T13:27:36;11.80;;;10.55;;
23888;SDS011;12125;40.102;18.326;2022-12-29T13:30:09;11.50;;;9.07;;
23888;SDS011;12125;40.102;18.326;2022-12-29T13:37:52;12.05;;;9.40;;
23888;SDS011;12125;40.102;18.326;2022-12-29T13:40:23;13.02;;;9.65;;
23888;SDS011;12125;40.102;18.326;2022-12-29T13:42:51;13.10;;;10.82;;
23888;SDS011;12125;40.102;18.326;2022-12-29T13:45:22;15.00;;;10.15;;
23888;SDS011;12125;40.102;18.326;2022-12-29T13:50:36;10.65;;;9.52;;
23888;SDS011;12125;40.102;18.326;2022-12-29T13:53:23;13.77;;;10.82;;
23888;SDS011;12125;40.102;18.326;2022-12-29T13:55:55;14.32;;;10.82;;
23888;SDS011;12125;40.102;18.326;2022-12-29T14:06:15;15.38;;;11.57;;
23888;SDS011;12125;40.102;18.326;2022-12-29T14:08:43;14.52;;;11.45;;
23888;SDS011;12125;40.102;18.326;2022-12-29T14:11:10;14.05;;;11.43;;
23888;SDS011;12125;40.102;18.326;2022-12-29T14:13:39;22.67;;;12.13;;
23888;SDS011;12125;40.102;18.326;2022-12-29T14:16:07;14.88;;;12.02;;
23888;SDS011;12125;40.102;18.326;2022-12-29T14:18:40;13.05;;;11.65;;
23888;SDS011;12125;40.102;18.326;2022-12-29T14:21:17;14.50;;;11.98;;
23888;SDS011;12125;40.102;18.326;2022-12-29T14:23:46;17.55;;;12.15;;
23888;SDS011;12125;40.102;18.326;2022-12-29T14:31:44;15.05;;;12.27;;
23888;SDS011;12125;40.102;18.326;2022-12-29T14:36:38;14.32;;;11.50;;
23888;SDS011;12125;40.102;18.326;2022-12-29T14:44:24;23.08;;;12.05;;
23888;SDS011;12125;40.102;18.326;2022-12-29T14:49:22;17.15;;;12.82;;
23888;SDS011;12125;40.102;18.326;2022-12-29T14:51:53;16.77;;;12.10;;
23888;SDS011;12125;40.102;18.326;2022-12-29T14:54:34;29.08;;;20.60;;
23888;SDS011;12125;40.102;18.326;2022-12-29T14:57:14;23.95;;;16.40;;
23888;SDS011;12125;40.102;18.326;2022-12-29T14:59:41;26.20;;;17.42;;
23888;SDS011;12125;40.102;18.326;2022-12-29T15:02:19;18.27;;;14.38;;
23888;SDS011;12125;40.102;18.326;2022-12-29T15:04:46;19.10;;;14.55;;
23888;SDS011;12125;40.102;18.326;2022-12-29T15:07:13;26.50;;;19.98;;
23888;SDS011;12125;40.102;18.326;2022-12-29T15:09:42;27.48;;;19.35;;
23888;SDS011;12125;40.102;18.326;2022-12-29T15:12:20;24.55;;;18.52;;
23888;SDS011;12125;40.102;18.326;2022-12-29T15:14:52;25.70;;;19.45;;
23888;SDS011;12125;40.102;18.326;2022-12-29T15:17:29;32.43;;;20.23;;
23888;SDS011;12125;40.102;18.326;2022-12-29T15:19:57;23.13;;;18.38;;
23888;SDS011;12125;40.102;18.326;2022-12-29T15:22:24;25.88;;;19.13;;
23888;SDS011;12125;40.102;18.326;2022-12-29T15:24:51;113.40;;;25.73;;
23888;SDS011;12125;40.102;18.326;2022-12-29T15:27:20;43.13;;;19.02;;
23888;SDS011;12125;40.102;18.326;2022-12-29T15:29:47;79.13;;;23.15;;
23888;SDS011;12125;40.102;18.326;2022-12-29T15:32:16;34.10;;;19.85;;
23888;SDS011;12125;40.102;18.326;2022-12-29T15:34:46;38.60;;;17.73;;
23888;SDS011;12125;40.102;18.326;2022-12-29T15:37:19;22.85;;;15.13;;
23888;SDS011;12125;40.102;18.326;2022-12-29T15:39:48;24.10;;;16.60;;
23888;SDS011;12125;40.102;18.326;2022-12-29T15:45:06;16.50;;;13.07;;
23888;SDS011;12125;40.102;18.326;2022-12-29T15:47:33;17.80;;;12.07;;
23888;SDS011;12125;40.102;18.326;2022-12-29T15:50:05;16.38;;;14.40;;
23888;SDS011;12125;40.102;18.326;2022-12-29T15:55:00;20.52;;;15.50;;
23888;SDS011;12125;40.102;18.326;2022-12-29T15:57:30;19.00;;;15.23;;
23888;SDS011;12125;40.102;18.326;2022-12-29T15:59:58;17.90;;;14.93;;
23888;SDS011;12125;40.102;18.326;2022-12-29T16:02:25;22.00;;;15.48;;
23888;SDS011;12125;40.102;18.326;2022-12-29T16:04:53;21.90;;;15.68;;
23888;SDS011;12125;40.102;18.326;2022-12-29T16:07:30;24.30;;;19.63;;
23888;SDS011;12125;40.102;18.326;2022-12-29T16:09:58;24.23;;;17.40;;
23888;SDS011;12125;40.102;18.326;2022-12-29T16:12:28;23.50;;;17.00;;
23888;SDS011;12125;40.102;18.326;2022-12-29T16:14:57;19.10;;;14.52;;
23888;SDS011;12125;40.102;18.326;2022-12-29T16:17:26;23.70;;;17.67;;
23888;SDS011;12125;40.102;18.326;2022-12-29T16:19:55;28.70;;;19.60;;
23888;SDS011;12125;40.102;18.326;2022-12-29T16:22:30;22.88;;;16.83;;
23888;SDS011;12125;40.102;18.326;2022-12-29T16:24:58;23.85;;;18.17;;
23888;SDS011;12125;40.102;18.326;2022-12-29T16:27:31;31.00;;;17.27;;
23888;SDS011;12125;40.102;18.326;2022-12-29T16:30:17;20.85;;;16.10;;
23888;SDS011;12125;40.102;18.326;2022-12-29T16:32:48;22.45;;;16.95;;
23888;SDS011;12125;40.102;18.326;2022-12-29T16:35:19;22.17;;;16.02;;
23888;SDS011;12125;40.102;18.326;2022-12-29T16:37:46;20.77;;;16.67;;
23888;SDS011;12125;40.102;18.326;2022-12-29T16:40:28;20.27;;;16.55;;